KLNN

Willoughby Lost Nation Municipal Airport

Willoughby, Ohio, USA
METAR KLNN 222015Z AUTO 27007KT 10SM CLR 12/01 A3003 RMK AO1 T01190005
Observed Flight Rules
Oct-22 @ 20:15 UTC (33 minutes ago) Visual Flight Rules
Wind Visibility Clouds
270° at 7 knots 10 miles
  • Clear skies
Temperatures Readings
Current 12°C / 54°F
Dewpoint 1°C / 34°F
Humidity 47%
Altimeter 30.03" Hg
Pressure 1017 hPa
Elevation 191
METAR KLNN 222015Z AUTO 27007KT 10SM CLR 12/01 A3003 RMK AO1 T01190005
Observed Flight Rules
Oct-22 @ 20:15 UTC
(33 minutes ago)
VFR
Wind Visibility
270° at 7 knots 10 miles
Clouds
  • Clear skies
Temperature Dewpoint
12°C / 54°F 1°C / 34°F
Humidity Altimeter Pressure
47% 30.03" Hg 1017 hPa